Market Drayton, United Kingdom
Current Conditions -  °F | °C
As of 2:50 AM on Saturday 20 Dec 2014 (Local Time) from EGOS Reporting Station
Scattered Clouds Scattered Clouds  
Wind Chill: 39°   Ceiling: Unl
Heat Index: 46°   Visibility: 6mi
Dew Point: 37°   Wind: 18mph
Humidity: 71%   Direction: 260°W
Pressure: 30.12"   Gusts: NA
Location:  52.91°N, 2.49°W
Report Text: EGOS 200250Z AUTO 26016KT 9999 SCT041/// 08/03 Q1020
Loading
Personal Weather Stations






























Interactive Weather Map New forecast layout! Learn more

10-Day Weather Forecast

Advertisements
Track Severe Weather on mobile